Time;durP1;ratioP1;P1;durP2;ratioP2;P2;SDS_P1;SDS_P2;PMS_P1;PMS_P2;Temp;Humidity;BMP_temperature;BMP_pressure;BME280_temperature;BME280_humidity;BME280_pressure;Samples;Min_cycle;Max_cycle;Signal;HPM_P1;HPM_P2
2023/12/21 00:01:34;;;;;;;1.57;0.80;;;;;;;4.83;87.00;95287.41;5019536;28;20242;-79
2023/12/21 00:04:01;;;;;;;0.70;0.53;;;;;;;4.63;88.07;95288.94;5015283;28;20182;-81
2023/12/21 00:06:26;;;;;;;0.40;0.40;;;;;;;5.09;86.49;95267.34;5022215;28;20198;-80
2023/12/21 00:08:51;;;;;;;1.70;0.77;;;;;;;4.84;87.75;95261.53;5025637;28;20233;-80
2023/12/21 00:11:17;;;;;;;1.40;0.80;;;;;;;4.92;87.69;95262.69;5019588;28;20274;-79
2023/12/21 00:13:42;;;;;;;0.40;0.40;;;;;;;4.81;89.27;95259.22;5029976;28;20190;-80
2023/12/21 00:16:07;;;;;;;2.00;0.63;;;;;;;4.85;88.69;95252.06;5013903;28;20690;-80
2023/12/21 00:18:33;;;;;;;1.97;0.90;;;;;;;4.54;90.72;95258.78;5022329;28;20261;-79
2023/12/21 00:20:58;;;;;;;2.60;1.23;;;;;;;4.62;90.66;95243.59;5024139;28;20206;-80
2023/12/21 00:23:23;;;;;;;0.40;0.30;;;;;;;4.65;91.58;95245.91;5028051;28;20701;-80
2023/12/21 00:25:49;;;;;;;0.47;0.40;;;;;;;4.93;90.44;95241.19;5008891;28;20588;-80
2023/12/21 00:28:14;;;;;;;0.40;0.40;;;;;;;4.73;92.33;95245.31;5002303;28;20216;-80
2023/12/21 00:30:39;;;;;;;1.70;0.33;;;;;;;4.78;92.19;95241.47;5029014;28;20193;-79
2023/12/21 00:33:05;;;;;;;0.30;0.30;;;;;;;4.80;92.54;95242.16;5012065;28;20228;-80
2023/12/21 00:35:30;;;;;;;2.60;0.77;;;;;;;4.83;92.39;95231.59;5020611;28;20211;-79
2023/12/21 00:37:55;;;;;;;0.60;0.57;;;;;;;4.87;92.50;95226.25;5021875;28;20694;-80
2023/12/21 00:40:21;;;;;;;0.40;0.40;;;;;;;4.81;92.66;95233.50;5024739;28;20183;-80
2023/12/21 00:42:46;;;;;;;0.77;0.30;;;;;;;4.71;93.67;95242.88;5024138;28;20215;-80
2023/12/21 00:45:12;;;;;;;0.23;0.23;;;;;;;4.54;94.07;95235.63;5013891;28;20208;-80
2023/12/21 00:47:37;;;;;;;0.47;0.30;;;;;;;4.73;93.59;95232.44;5027571;28;20276;-80
2023/12/21 00:50:03;;;;;;;0.40;0.40;;;;;;;4.67;93.45;95228.59;5010480;28;20679;-80
2023/12/21 00:52:28;;;;;;;0.20;0.20;;;;;;;4.79;92.21;95235.38;5019290;28;20186;-80
2023/12/21 00:54:54;;;;;;;0.40;0.40;;;;;;;4.75;92.78;95223.66;5010424;28;20191;-80
2023/12/21 00:57:19;;;;;;;3.10;0.90;;;;;;;4.88;92.73;95220.16;5026099;28;20241;-79
2023/12/21 00:59:44;;;;;;;0.97;0.70;;;;;;;4.81;92.30;95228.34;5025904;28;20620;-80
2023/12/21 01:02:09;;;;;;;0.37;0.30;;;;;;;4.88;91.99;95222.72;5016303;28;20222;-80
2023/12/21 01:04:35;;;;;;;0.40;0.40;;;;;;;4.96;91.70;95218.63;5022579;28;20183;-81
2023/12/21 01:07:01;;;;;;;0.30;0.30;;;;;;;5.08;90.86;95222.78;5005959;28;20214;-79
2023/12/21 01:09:26;;;;;;;4.07;1.20;;;;;;;5.07;91.24;95217.75;5021806;28;20612;-80
2023/12/21 01:11:52;;;;;;;0.20;0.20;;;;;;;4.96;92.12;95194.63;5017065;28;20216;-79
2023/12/21 01:14:17;;;;;;;0.77;0.50;;;;;;;5.08;91.46;95196.22;5028653;28;20201;-80
2023/12/21 01:16:43;;;;;;;0.20;0.20;;;;;;;4.94;92.72;95187.00;5020368;28;20305;-79
2023/12/21 01:19:08;;;;;;;0.20;0.20;;;;;;;4.79;93.48;95189.06;5023695;28;20178;-80
2023/12/21 01:21:33;;;;;;;4.87;1.30;;;;;;;5.15;92.25;95183.69;5023614;28;20301;-79
2023/12/21 01:23:59;;;;;;;0.30;0.30;;;;;;;5.18;91.47;95176.53;5029305;28;20182;-80
2023/12/21 01:26:24;;;;;;;0.30;0.30;;;;;;;4.89;93.22;95167.75;5017604;28;20234;-79
2023/12/21 01:28:49;;;;;;;1.70;0.33;;;;;;;4.93;93.41;95174.28;5023086;28;20262;-80
2023/12/21 01:31:15;;;;;;;0.20;0.20;;;;;;;4.80;94.54;95162.41;5023838;28;20194;-79
2023/12/21 01:33:40;;;;;;;0.40;0.40;;;;;;;4.93;93.54;95157.09;5023202;28;20244;-80
2023/12/21 01:36:09;;;;;;;1.17;0.30;;;;;;;4.90;93.92;95167.63;5014000;28;20244;-80
2023/12/21 01:38:34;;;;;;;0.87;0.20;;;;;;;4.72;94.56;95175.06;5002872;28;20327;-79
2023/12/21 01:41:00;;;;;;;1.53;0.70;;;;;;;5.10;93.29;95171.16;5026749;28;20326;-80
2023/12/21 01:43:25;;;;;;;0.40;0.40;;;;;;;4.91;94.00;95173.59;5023340;28;20207;-80
2023/12/21 01:45:52;;;;;;;0.30;0.30;;;;;;;5.15;93.17;95169.06;5014191;28;20353;-80
2023/12/21 01:48:17;;;;;;;0.40;0.40;;;;;;;4.75;94.87;95163.69;5021716;28;20190;-80
2023/12/21 01:50:43;;;;;;;0.30;0.30;;;;;;;4.69;95.06;95156.47;5019887;28;20185;-80
2023/12/21 01:53:09;;;;;;;0.40;0.40;;;;;;;4.74;95.22;95144.06;5019088;28;20574;-80
2023/12/21 01:55:35;;;;;;;0.87;0.40;;;;;;;4.85;94.98;95149.16;5026680;28;20228;-79
2023/12/21 01:58:00;;;;;;;0.23;0.23;;;;;;;4.72;95.23;95141.59;5028763;28;20194;-80
2023/12/21 02:00:26;;;;;;;0.53;0.30;;;;;;;4.68;95.53;95145.38;5020184;28;20236;-80
2023/12/21 02:02:52;;;;;;;0.30;0.30;;;;;;;4.90;94.54;95141.09;5016492;28;20676;-80
2023/12/21 02:05:17;;;;;;;0.50;0.27;;;;;;;5.01;94.32;95144.41;5024010;28;20252;-79
2023/12/21 02:07:42;;;;;;;0.33;0.20;;;;;;;4.80;95.53;95135.84;5027736;28;20217;-80
2023/12/21 02:10:09;;;;;;;0.57;0.40;;;;;;;4.77;95.96;95121.50;5010907;28;20177;-80
2023/12/21 02:12:35;;;;;;;0.40;0.40;;;;;;;5.04;94.12;95121.03;5015788;28;20197;-80
2023/12/21 02:15:00;;;;;;;0.30;0.30;;;;;;;4.99;94.16;95109.47;5037454;28;20559;-80
2023/12/21 02:17:26;;;;;;;0.23;0.23;;;;;;;4.60;96.36;95119.44;5016356;28;20186;-80
2023/12/21 02:19:52;;;;;;;0.20;0.20;;;;;;;5.18;93.79;95116.50;5027546;28;20257;-80
2023/12/21 02:22:18;;;;;;;0.20;0.20;;;;;;;5.02;94.54;95122.06;5009854;28;20208;-80
2023/12/21 02:24:44;;;;;;;0.27;0.20;;;;;;;5.02;95.09;95122.06;5021255;28;20186;-80
2023/12/21 02:27:09;;;;;;;1.10;0.30;;;;;;;5.16;94.83;95116.63;5023434;28;20212;-80
2023/12/21 02:29:34;;;;;;;0.30;0.30;;;;;;;5.13;94.28;95114.31;5007729;28;20324;-80
2023/12/21 02:32:00;;;;;;;0.20;0.20;;;;;;;4.83;96.10;95107.31;5026858;28;20189;-79
2023/12/21 02:34:25;;;;;;;0.30;0.30;;;;;;;5.03;95.63;95103.13;5026016;28;20191;-80
2023/12/21 02:36:51;;;;;;;0.20;0.20;;;;;;;4.91;95.48;95091.25;5020202;28;20206;-80
2023/12/21 02:39:16;;;;;;;0.30;0.30;;;;;;;4.96;96.27;95074.50;5025097;28;20203;-80
2023/12/21 02:41:41;;;;;;;0.30;0.30;;;;;;;5.06;95.10;95074.56;5026462;28;20199;-80
2023/12/21 02:44:07;;;;;;;0.40;0.40;;;;;;;4.86;96.31;95062.50;5025050;28;20217;-80
2023/12/21 02:46:32;;;;;;;0.30;0.30;;;;;;;4.98;96.34;95064.09;5011844;28;20214;-80
2023/12/21 02:48:58;;;;;;;0.20;0.20;;;;;;;5.00;96.58;95062.19;5008256;28;20209;-80
2023/12/21 02:51:23;;;;;;;0.20;0.20;;;;;;;5.09;96.06;95051.97;5023426;28;20174;-80
2023/12/21 02:53:49;;;;;;;0.30;0.30;;;;;;;5.04;96.12;95051.53;5025817;28;20666;-80
2023/12/21 02:56:15;;;;;;;0.20;0.20;;;;;;;4.82;96.97;95055.03;5021907;28;20252;-80
2023/12/21 02:58:40;;;;;;;0.30;0.30;;;;;;;4.93;96.66;95038.72;5011229;28;20191;-80
2023/12/21 03:01:05;;;;;;;0.17;0.17;;;;;;;5.04;96.90;95035.28;5022261;28;20653;-80
2023/12/21 03:03:31;;;;;;;0.33;0.20;;;;;;;4.91;98.01;95001.19;5021352;28;20275;-80
2023/12/21 03:05:56;;;;;;;0.20;0.20;;;;;;;4.91;97.85;95007.16;5027291;28;20223;-80
2023/12/21 03:08:22;;;;;;;0.30;0.30;;;;;;;4.88;97.80;95016.91;5025283;28;20190;-80
2023/12/21 03:10:48;;;;;;;0.80;0.50;;;;;;;4.86;97.85;95018.75;5024018;28;20175;-80
2023/12/21 03:13:13;;;;;;;0.30;0.30;;;;;;;5.01;96.97;95028.63;5023308;28;20555;-80
2023/12/21 03:15:38;;;;;;;0.27;0.27;;;;;;;5.24;96.40;95023.34;5016360;28;20211;-80
2023/12/21 03:18:04;;;;;;;0.57;0.40;;;;;;;5.17;96.74;95012.72;5026806;28;20233;-81
2023/12/21 03:20:29;;;;;;;0.20;0.20;;;;;;;4.92;97.64;95005.41;5026032;28;20195;-80
2023/12/21 03:22:55;;;;;;;0.20;0.20;;;;;;;5.01;97.80;94994.34;5029252;28;20222;-80
2023/12/21 03:25:20;;;;;;;0.20;0.20;;;;;;;5.02;97.42;94998.56;5035071;28;20684;-80
2023/12/21 03:27:47;;;;;;;0.20;0.20;;;;;;;5.13;96.87;95002.81;5021876;28;20187;-80
2023/12/21 03:30:12;;;;;;;0.13;0.13;;;;;;;4.99;98.28;95003.97;5018866;28;20193;-80
2023/12/21 03:32:38;;;;;;;0.20;0.20;;;;;;;5.29;96.17;94990.28;5028480;28;20700;-80
2023/12/21 03:35:05;;;;;;;0.20;0.20;;;;;;;5.31;96.15;94980.69;5020900;28;20192;-80
2023/12/21 03:37:31;;;;;;;0.10;0.10;;;;;;;5.15;96.59;94976.00;5001349;28;20253;-80
2023/12/21 03:39:56;;;;;;;0.20;0.20;;;;;;;5.13;97.02;94975.34;5033152;28;20184;-80
2023/12/21 03:42:22;;;;;;;0.20;0.20;;;;;;;5.25;96.35;94976.88;5023552;28;20205;-79
2023/12/21 03:44:47;;;;;;;0.20;0.20;;;;;;;5.35;95.61;94980.28;5027662;28;20179;-80
2023/12/21 03:47:13;;;;;;;0.30;0.30;;;;;;;5.26;96.47;94993.94;5026463;28;20296;-79
2023/12/21 03:49:39;;;;;;;1.07;0.30;;;;;;;5.23;96.04;95001.13;5041319;28;20281;-80
2023/12/21 03:52:05;;;;;;;0.20;0.20;;;;;;;5.50;94.98;94995.41;5026315;28;20195;-80
2023/12/21 03:54:30;;;;;;;0.20;0.20;;;;;;;5.37;95.64;94982.72;5028892;28;20204;-80
2023/12/21 03:56:56;;;;;;;1.13;0.20;;;;;;;5.27;96.71;94972.41;5029803;28;20660;-80
2023/12/21 03:59:21;;;;;;;0.20;0.20;;;;;;;5.55;95.85;94963.13;5017973;28;20676;-80
2023/12/21 04:01:46;;;;;;;0.20;0.20;;;;;;;5.40;96.86;94967.84;5023006;28;20221;-80
2023/12/21 04:04:12;;;;;;;0.23;0.23;;;;;;;5.33;97.11;94961.59;5018785;28;20209;-80
2023/12/21 04:06:37;;;;;;;1.10;0.20;;;;;;;5.21;97.51;94962.63;5024715;28;20585;-79
2023/12/21 04:09:02;;;;;;;0.20;0.20;;;;;;;5.60;95.65;94971.31;5024784;28;20194;-80
2023/12/21 04:11:28;;;;;;;0.20;0.20;;;;;;;5.81;94.27;94968.63;5023353;28;20187;-80
2023/12/21 04:13:54;;;;;;;0.20;0.20;;;;;;;5.80;94.61;94959.28;5025284;28;20739;-80
2023/12/21 04:16:19;;;;;;;0.10;0.10;;;;;;;5.48;96.61;94956.06;5025154;28;20242;-79
2023/12/21 04:18:44;;;;;;;0.23;0.23;;;;;;;5.61;95.91;94947.16;5022519;28;20194;-80
2023/12/21 04:21:10;;;;;;;0.20;0.20;;;;;;;5.56;95.74;94949.31;5026835;28;20182;-80
2023/12/21 04:23:35;;;;;;;0.20;0.20;;;;;;;5.51;96.33;94948.09;5011037;28;20309;-80
2023/12/21 04:26:00;;;;;;;0.13;0.13;;;;;;;5.65;96.02;94934.81;5029698;28;20241;-79
2023/12/21 04:28:26;;;;;;;0.30;0.30;;;;;;;5.75;95.82;94937.44;5016946;28;20213;-80
2023/12/21 04:30:51;;;;;;;0.20;0.10;;;;;;;5.82;95.00;94956.56;5014159;28;20183;-80
2023/12/21 04:33:16;;;;;;;0.23;0.23;;;;;;;5.51;96.69;94942.94;5025314;28;20278;-80
2023/12/21 04:35:45;;;;;;;0.20;0.20;;;;;;;5.71;96.84;94944.59;5025508;28;20299;-80
2023/12/21 04:38:12;;;;;;;0.20;0.20;;;;;;;5.73;95.93;94937.56;5035567;28;20783;-81
2023/12/21 04:40:37;;;;;;;0.17;0.17;;;;;;;5.66;97.35;94931.31;5010550;28;20197;-80
2023/12/21 04:43:03;;;;;;;0.20;0.20;;;;;;;5.65;96.94;94933.09;5029777;28;20214;-80
2023/12/21 04:45:28;;;;;;;0.40;0.40;;;;;;;5.65;96.94;94919.38;5026522;28;20734;-81
2023/12/21 04:47:54;;;;;;;0.20;0.20;;;;;;;5.55;97.69;94913.38;5020192;28;20924;-80
2023/12/21 04:50:20;;;;;;;0.60;0.30;;;;;;;5.65;96.89;94919.38;5027990;28;20191;-80
2023/12/21 04:52:46;;;;;;;0.20;0.20;;;;;;;5.81;96.04;94918.84;5026541;28;20179;-80
2023/12/21 04:55:12;;;;;;;0.20;0.20;;;;;;;5.52;96.55;94914.47;5024218;28;20222;-80
2023/12/21 04:57:37;;;;;;;0.20;0.20;;;;;;;5.89;95.63;94906.94;5027421;28;20198;-79
2023/12/21 05:00:05;;;;;;;0.20;0.20;;;;;;;5.75;96.46;94909.91;5015740;28;20189;-80
2023/12/21 05:02:30;;;;;;;0.23;0.20;;;;;;;5.85;95.27;94900.44;5020467;28;20210;-80
2023/12/21 05:04:56;;;;;;;0.30;0.20;;;;;;;5.76;95.90;94890.94;5022781;28;20178;-80
2023/12/21 05:07:21;;;;;;;0.20;0.20;;;;;;;5.74;96.68;94873.97;5022006;28;20610;-80
2023/12/21 05:09:46;;;;;;;0.10;0.10;;;;;;;5.52;97.36;94890.50;5022917;28;20191;-80
2023/12/21 05:12:12;;;;;;;0.23;0.23;;;;;;;5.84;96.49;94887.69;5024413;28;20297;-79
2023/12/21 05:14:37;;;;;;;0.57;0.20;;;;;;;5.62;97.56;94888.75;5010358;28;20677;-80
2023/12/21 05:17:02;;;;;;;0.30;0.30;;;;;;;5.76;96.95;94885.78;5025104;28;20726;-80
2023/12/21 05:19:28;;;;;;;1.47;0.50;;;;;;;5.85;96.54;94884.16;5024207;28;20179;-80
2023/12/21 05:21:53;;;;;;;0.20;0.20;;;;;;;5.66;98.51;94900.41;5022652;28;20211;-80
2023/12/21 05:24:19;;;;;;;0.30;0.30;;;;;;;5.89;96.68;94881.16;5026699;28;20182;-80
2023/12/21 05:26:44;;;;;;;0.20;0.20;;;;;;;5.65;98.56;94884.16;5005987;28;20268;-80
2023/12/21 05:29:09;;;;;;;0.20;0.20;;;;;;;5.45;98.98;94879.88;5017721;28;20218;-79
2023/12/21 05:31:37;;;;;;;0.20;0.20;;;;;;;5.78;98.17;94868.41;5025419;28;20180;-80
2023/12/21 05:34:03;;;;;;;0.30;0.30;;;;;;;5.51;98.46;94868.25;5028213;28;20673;-80
2023/12/21 05:36:29;;;;;;;0.20;0.20;;;;;;;5.71;97.65;94856.22;5024533;28;20205;-80
2023/12/21 05:38:54;;;;;;;0.30;0.30;;;;;;;5.65;97.95;94857.53;4999985;28;20707;-81
2023/12/21 05:41:19;;;;;;;0.40;0.40;;;;;;;5.94;96.71;94863.56;5016351;28;20322;-80
2023/12/21 05:43:45;;;;;;;0.20;0.20;;;;;;;5.78;97.71;94865.84;5026845;28;20668;-80
2023/12/21 05:46:10;;;;;;;0.20;0.20;;;;;;;5.67;98.11;94853.91;5022723;28;21007;-79
2023/12/21 05:48:36;;;;;;;0.20;0.20;;;;;;;5.62;97.80;94845.75;5020447;28;20754;-79
2023/12/21 05:51:01;;;;;;;0.20;0.20;;;;;;;5.86;97.34;94840.22;5026614;28;20186;-80
2023/12/21 05:53:30;;;;;;;0.77;0.20;;;;;;;5.83;97.49;94844.81;5017363;28;20261;-81
2023/12/21 05:55:55;;;;;;;0.20;0.20;;;;;;;5.60;100.00;94839.13;5025091;28;20625;-80
2023/12/21 05:58:20;;;;;;;0.27;0.27;;;;;;;5.97;97.25;94847.84;5024283;28;20194;-80
2023/12/21 06:00:46;;;;;;;0.20;0.20;;;;;;;5.72;98.51;94839.81;5024960;28;20597;-79
2023/12/21 06:03:11;;;;;;;0.20;0.20;;;;;;;5.78;99.15;94832.34;5011897;28;20254;-80
2023/12/21 06:05:36;;;;;;;0.20;0.20;;;;;;;5.73;98.55;94831.94;5024333;28;20211;-79
2023/12/21 06:08:02;;;;;;;0.30;0.30;;;;;;;5.65;99.96;94824.06;5019841;28;20187;-79
2023/12/21 06:10:27;;;;;;;0.20;0.20;;;;;;;5.73;99.42;94831.94;5022241;28;20205;-80
2023/12/21 06:12:53;;;;;;;0.20;0.20;;;;;;;5.61;98.53;94804.69;5019440;28;20232;-79
2023/12/21 06:15:18;;;;;;;0.20;0.20;;;;;;;5.57;99.16;94808.50;5013641;28;20293;-79
2023/12/21 06:17:43;;;;;;;0.20;0.20;;;;;;;5.77;98.59;94799.00;5024253;28;20188;-81
2023/12/21 06:20:09;;;;;;;0.20;0.20;;;;;;;5.69;98.23;94808.22;5033991;28;20182;-80
2023/12/21 06:22:35;;;;;;;0.20;0.20;;;;;;;5.84;97.74;94787.19;5024073;28;20225;-81
2023/12/21 06:25:00;;;;;;;0.20;0.20;;;;;;;5.64;98.25;94783.81;5028789;28;20638;-81
2023/12/21 06:27:25;;;;;;;0.30;0.30;;;;;;;5.89;97.47;94777.28;5016456;28;20179;-80
2023/12/21 06:29:51;;;;;;;0.20;0.20;;;;;;;5.63;98.47;94771.88;5021670;28;20190;-80
2023/12/21 06:32:16;;;;;;;0.20;0.20;;;;;;;5.73;97.93;94761.56;5025965;28;20261;-81
2023/12/21 06:34:42;;;;;;;0.20;0.20;;;;;;;6.10;96.13;94761.69;5027147;28;20182;-80
2023/12/21 06:37:07;;;;;;;0.30;0.30;;;;;;;6.10;95.37;94765.09;5020473;28;20217;-81
2023/12/21 06:39:33;;;;;;;0.23;0.20;;;;;;;5.82;96.95;94771.03;5021788;28;20198;-82
2023/12/21 06:41:59;;;;;;;1.77;0.90;;;;;;;6.14;95.33;94770.75;5032923;28;20301;-81
2023/12/21 06:44:24;;;;;;;0.20;0.20;;;;;;;5.93;95.89;94766.59;5029475;28;20183;-81
2023/12/21 06:46:51;;;;;;;0.30;0.30;;;;;;;5.96;96.35;94748.28;5024282;28;20214;-82
2023/12/21 06:49:16;;;;;;;1.17;0.97;;;;;;;5.89;96.42;94760.06;5012389;28;20208;-83
2023/12/21 06:51:44;;;;;;;0.33;0.33;;;;;;;5.93;96.70;94750.34;5026168;28;20818;-79
2023/12/21 06:54:10;;;;;;;2.83;1.43;;;;;;;6.10;96.11;94747.03;5018315;28;20186;-80
2023/12/21 06:56:35;;;;;;;0.50;0.40;;;;;;;6.03;96.19;94752.88;5025181;28;20581;-80
2023/12/21 06:59:01;;;;;;;0.20;0.20;;;;;;;6.07;96.01;94754.22;5033354;28;20194;-81
2023/12/21 07:01:27;;;;;;;0.30;0.30;;;;;;;6.15;95.99;94756.91;5022961;28;20187;-80
2023/12/21 07:03:53;;;;;;;0.30;0.30;;;;;;;6.19;95.64;94750.53;5016323;28;20217;-80
2023/12/21 07:06:18;;;;;;;0.20;0.20;;;;;;;6.00;96.62;94755.72;5026420;28;20207;-80
2023/12/21 07:08:44;;;;;;;0.60;0.30;;;;;;;6.10;96.08;94739.31;5025383;28;20205;-79
2023/12/21 07:11:09;;;;;;;0.20;0.20;;;;;;;6.17;96.53;94734.38;5022909;28;20641;-80
2023/12/21 07:13:35;;;;;;;0.80;0.30;;;;;;;6.08;96.78;94727.50;5021171;28;20179;-80
2023/12/21 07:16:01;;;;;;;0.30;0.30;;;;;;;6.14;96.16;94711.47;5030169;28;20275;-79
2023/12/21 07:18:27;;;;;;;0.23;0.23;;;;;;;6.30;94.94;94706.53;5022284;28;20191;-79
2023/12/21 07:20:52;;;;;;;0.30;0.27;;;;;;;6.28;95.20;94723.91;5028156;28;20188;-79
2023/12/21 07:23:17;;;;;;;0.20;0.20;;;;;;;6.09;96.24;94713.66;5022268;28;20198;-80
2023/12/21 07:25:43;;;;;;;0.30;0.30;;;;;;;6.23;95.76;94708.03;5029162;28;20229;-78
2023/12/21 07:28:08;;;;;;;0.23;0.23;;;;;;;6.18;96.08;94694.75;5021011;28;20214;-78
2023/12/21 07:30:34;;;;;;;0.50;0.50;;;;;;;6.35;94.77;94696.59;5025540;28;20182;-79
2023/12/21 07:32:59;;;;;;;0.60;0.50;;;;;;;6.23;95.24;94679.69;5031110;28;20186;-79
2023/12/21 07:35:24;;;;;;;0.60;0.60;;;;;;;6.21;95.22;94685.00;5028437;28;20757;-79
2023/12/21 07:37:50;;;;;;;4.13;3.63;;;;;;;6.55;93.86;94681.84;5004012;28;20217;-78
2023/12/21 07:40:15;;;;;;;3.47;1.43;;;;;;;6.59;93.32;94690.91;5028665;28;20185;-78
2023/12/21 07:42:40;;;;;;;0.33;0.33;;;;;;;6.33;94.45;94693.34;5031697;28;20203;-79
2023/12/21 07:45:06;;;;;;;1.43;1.00;;;;;;;6.34;94.60;94687.22;5028421;28;20186;-79
2023/12/21 07:47:31;;;;;;;1.00;0.70;;;;;;;6.54;93.91;94685.38;5025756;28;20190;-79
2023/12/21 07:49:57;;;;;;;0.63;0.63;;;;;;;6.50;94.07;94699.50;5033184;28;20243;-81
2023/12/21 07:52:22;;;;;;;0.30;0.30;;;;;;;6.26;95.15;94697.44;5028254;28;20190;-81
2023/12/21 07:54:48;;;;;;;0.80;0.80;;;;;;;6.57;93.75;94679.94;5030088;28;20187;-79
2023/12/21 07:57:14;;;;;;;2.80;0.97;;;;;;;6.60;93.57;94691.72;5024542;28;20696;-79
2023/12/21 07:59:40;;;;;;;0.87;0.70;;;;;;;6.48;93.38;94691.91;5029508;28;20183;-79
2023/12/21 08:02:05;;;;;;;0.60;0.60;;;;;;;6.57;93.68;94710.06;5024065;28;20198;-79
2023/12/21 08:04:31;;;;;;;0.50;0.50;;;;;;;6.52;94.08;94698.41;5022708;28;20190;-79
2023/12/21 08:06:56;;;;;;;2.30;0.70;;;;;;;6.59;93.72;94703.00;5034350;28;20225;-79
2023/12/21 08:09:22;;;;;;;0.27;0.27;;;;;;;6.65;93.47;94700.66;5028484;28;20187;-79
2023/12/21 08:11:47;;;;;;;0.30;0.30;;;;;;;6.65;93.32;94668.91;5010044;28;20260;-80
2023/12/21 08:14:13;;;;;;;0.93;0.50;;;;;;;6.65;93.38;94669.72;5025076;28;20219;-79
2023/12/21 08:16:39;;;;;;;0.20;0.20;;;;;;;6.44;94.21;94680.25;5020316;28;20207;-80
2023/12/21 08:19:04;;;;;;;0.40;0.40;;;;;;;6.70;92.87;94662.31;5026481;28;20182;-79
2023/12/21 08:21:30;;;;;;;2.07;1.33;;;;;;;6.75;93.00;94654.97;5024681;28;20194;-79
2023/12/21 08:23:55;;;;;;;0.33;0.33;;;;;;;6.70;93.42;94653.78;5029510;28;20683;-79
2023/12/21 08:26:20;;;;;;;0.30;0.30;;;;;;;6.63;92.87;94648.41;5024840;28;20286;-79
2023/12/21 08:28:46;;;;;;;0.20;0.20;;;;;;;6.71;93.32;94632.97;5021050;28;20222;-79
2023/12/21 08:31:11;;;;;;;0.30;0.30;;;;;;;6.70;93.20;94653.78;5030644;28;20198;-79
2023/12/21 08:33:37;;;;;;;0.30;0.30;;;;;;;6.77;92.84;94652.25;5010925;28;20191;-79
2023/12/21 08:36:03;;;;;;;0.30;0.30;;;;;;;6.78;93.17;94639.19;5025246;28;20205;-79
2023/12/21 08:38:29;;;;;;;0.67;0.40;;;;;;;6.76;93.15;94635.13;5012114;28;20679;-80
2023/12/21 08:40:54;;;;;;;0.30;0.20;;;;;;;6.93;92.32;94649.00;5013354;28;20183;-79
2023/12/21 08:43:19;;;;;;;0.30;0.30;;;;;;;6.98;92.00;94668.28;5026035;28;20290;-80
2023/12/21 08:45:45;;;;;;;0.60;0.20;;;;;;;6.93;92.16;94649.00;5028948;28;20243;-80
2023/12/21 08:48:10;;;;;;;0.20;0.20;;;;;;;6.78;92.82;94670.16;5017973;28;20191;-79
2023/12/21 08:50:35;;;;;;;0.20;0.20;;;;;;;6.99;92.05;94638.09;5009679;28;20186;-79
2023/12/21 08:53:02;;;;;;;0.13;0.13;;;;;;;6.74;92.73;94629.31;5024336;28;20212;-79
2023/12/21 08:55:28;;;;;;;0.30;0.30;;;;;;;6.89;92.37;94622.69;5026320;28;20293;-79
2023/12/21 08:57:56;;;;;;;0.20;0.20;;;;;;;6.93;92.17;94647.25;5026578;28;20218;-79
2023/12/21 09:00:21;;;;;;;0.30;0.30;;;;;;;6.90;92.08;94644.97;5027604;28;20346;-79
2023/12/21 09:02:46;;;;;;;0.20;0.20;;;;;;;6.72;92.88;94633.81;5021687;28;20671;-79
2023/12/21 09:05:12;;;;;;;0.30;0.30;;;;;;;6.91;92.46;94632.88;5023329;28;20195;-79
2023/12/21 09:07:38;;;;;;;0.20;0.20;;;;;;;7.00;91.66;94635.38;5027083;28;20640;-79
2023/12/21 09:10:04;;;;;;;0.20;0.20;;;;;;;6.78;92.87;94615.16;5029128;28;20293;-79
2023/12/21 09:12:29;;;;;;;0.60;0.60;;;;;;;6.97;91.86;94603.88;5024184;28;20175;-80
2023/12/21 09:14:55;;;;;;;1.03;0.60;;;;;;;6.86;91.95;94596.34;5026230;28;20601;-79
2023/12/21 09:17:20;;;;;;;0.77;0.50;;;;;;;6.97;91.70;94589.19;5022251;28;20198;-79
2023/12/21 09:19:45;;;;;;;2.80;1.60;;;;;;;7.04;91.52;94576.50;5021145;28;20198;-79
2023/12/21 09:22:11;;;;;;;0.90;0.70;;;;;;;6.90;92.72;94567.53;5020809;28;20199;-79
2023/12/21 09:24:39;;;;;;;1.37;0.90;;;;;;;7.10;91.96;94568.97;5026532;28;20307;-79
2023/12/21 09:27:05;;;;;;;1.20;0.90;;;;;;;7.09;91.76;94580.25;5025231;28;20212;-79
2023/12/21 09:29:30;;;;;;;0.90;0.80;;;;;;;7.12;90.97;94583.50;5000341;28;20408;-80
2023/12/21 09:31:56;;;;;;;0.20;0.20;;;;;;;7.16;90.43;94579.69;5026661;28;20178;-80
2023/12/21 09:34:21;;;;;;;0.67;0.67;;;;;;;7.32;89.52;94572.03;5027415;28;20181;-80
2023/12/21 09:36:47;;;;;;;0.10;0.10;;;;;;;7.19;89.85;94571.63;5027270;28;20210;-79
2023/12/21 09:39:12;;;;;;;0.70;0.70;;;;;;;7.19;89.92;94556.13;5015781;28;20198;-79
2023/12/21 09:41:38;;;;;;;0.50;0.50;;;;;;;7.27;90.20;94548.44;5019723;28;20183;-79
2023/12/21 09:44:05;;;;;;;0.30;0.30;;;;;;;7.50;89.61;94553.88;5011214;28;20183;-80
2023/12/21 09:46:38;;;;;;;0.33;0.33;;;;;;;7.37;90.63;94521.53;5025146;28;20214;-80
2023/12/21 09:49:06;;;;;;;0.30;0.30;;;;;;;7.20;92.82;94550.00;5018859;28;20198;-80
2023/12/21 09:51:32;;;;;;;0.67;0.67;;;;;;;7.24;92.95;94543.56;5018913;28;20194;-79
2023/12/21 09:54:00;;;;;;;0.30;0.30;;;;;;;7.30;92.55;94525.69;5024256;28;20653;-80
2023/12/21 09:56:26;;;;;;;0.30;0.30;;;;;;;7.28;92.13;94531.97;5023975;28;20206;-80
2023/12/21 09:58:52;;;;;;;0.67;0.50;;;;;;;7.34;92.42;94515.88;5003903;28;20205;-80
2023/12/21 10:01:17;;;;;;;0.30;0.30;;;;;;;7.45;92.16;94514.81;5019901;28;20191;-80
2023/12/21 10:03:43;;;;;;;0.63;0.60;;;;;;;7.35;91.74;94530.41;5020080;28;20215;-80
2023/12/21 10:06:08;;;;;;;0.30;0.30;;;;;;;7.44;92.34;94555.31;5022084;28;20707;-80
2023/12/21 10:08:33;;;;;;;0.30;0.30;;;;;;;7.62;91.78;94539.75;5022763;28;20564;-80
2023/12/21 10:11:02;;;;;;;0.10;0.10;;;;;;;7.56;91.82;94532.63;5026209;28;20193;-81
2023/12/21 10:13:28;;;;;;;0.40;0.40;;;;;;;7.40;92.33;94515.25;5005498;28;20200;-80
2023/12/21 10:15:58;;;;;;;0.27;0.27;;;;;;;7.55;91.05;94490.47;5019377;28;20293;-80
2023/12/21 10:18:23;;;;;;;0.30;0.30;;;;;;;7.49;92.12;94449.75;5025401;28;20190;-80
2023/12/21 10:20:48;;;;;;;2.13;0.30;;;;;;;7.58;91.88;94461.72;5024895;28;20239;-79
2023/12/21 10:23:14;;;;;;;0.20;0.20;;;;;;;7.75;90.77;94454.03;5022480;28;20675;-81
2023/12/21 10:25:40;;;;;;;0.20;0.20;;;;;;;7.40;91.93;94440.34;5010245;28;20256;-79
2023/12/21 10:28:05;;;;;;;0.40;0.40;;;;;;;7.61;91.17;94443.34;5022091;28;20663;-81
2023/12/21 10:30:31;;;;;;;0.20;0.20;;;;;;;7.76;90.47;94432.41;5009593;28;20187;-79
2023/12/21 10:32:56;;;;;;;0.30;0.30;;;;;;;7.60;90.94;94436.56;5025382;28;20210;-80
2023/12/21 10:35:25;;;;;;;0.30;0.30;;;;;;;7.79;90.45;94409.66;5008084;28;20424;-79
2023/12/21 10:37:51;;;;;;;0.30;0.30;;;;;;;7.68;90.06;94368.59;5010786;28;20205;-80
2023/12/21 10:40:17;;;;;;;0.20;0.20;;;;;;;7.71;89.53;94376.03;5017832;28;20190;-78
2023/12/21 10:42:46;;;;;;;0.40;0.40;;;;;;;7.63;89.30;94353.56;5022507;28;20577;-80
2023/12/21 10:45:14;;;;;;;0.40;0.40;;;;;;;7.77;89.09;94346.94;5038786;28;20191;-81
2023/12/21 10:47:44;;;;;;;0.30;0.30;;;;;;;7.95;88.07;94326.97;5019286;28;20191;-79
2023/12/21 10:50:12;;;;;;;0.30;0.30;;;;;;;7.71;88.31;94326.13;5028357;28;20575;-79
2023/12/21 10:52:37;;;;;;;0.40;0.40;;;;;;;7.89;87.87;94327.59;5021198;28;20523;-79
2023/12/21 10:55:03;;;;;;;0.40;0.40;;;;;;;7.70;88.33;94309.00;5021580;28;20314;-79
2023/12/21 10:57:28;;;;;;;0.33;0.33;;;;;;;7.74;87.79;94323.22;5019184;28;20194;-80
2023/12/21 10:59:54;;;;;;;0.30;0.30;;;;;;;7.99;87.22;94314.50;5025687;28;20194;-79
2023/12/21 11:02:21;;;;;;;0.40;0.40;;;;;;;7.79;87.67;94300.31;5010099;28;20230;-79
2023/12/21 11:04:46;;;;;;;0.30;0.30;;;;;;;7.85;87.37;94295.28;5015154;28;20712;-79
2023/12/21 11:07:12;;;;;;;0.27;0.20;;;;;;;7.94;87.14;94294.31;5011215;28;20206;-80
2023/12/21 11:09:40;;;;;;;0.30;0.30;;;;;;;7.79;86.96;94287.38;5015525;28;20636;-78
2023/12/21 11:12:08;;;;;;;0.20;0.20;;;;;;;7.81;87.06;94259.59;5023900;28;20189;-79
2023/12/21 11:14:33;;;;;;;0.47;0.43;;;;;;;8.10;86.48;94264.25;5016965;28;20665;-80
2023/12/21 11:17:00;;;;;;;0.50;0.43;;;;;;;8.20;85.53;94251.94;5019168;28;20205;-79
2023/12/21 11:19:29;;;;;;;0.40;0.40;;;;;;;8.10;85.62;94265.06;5019036;28;20187;-79
2023/12/21 11:21:55;;;;;;;0.30;0.30;;;;;;;8.09;85.83;94250.50;5023529;28;20191;-79
2023/12/21 11:24:22;;;;;;;0.30;0.30;;;;;;;7.95;86.45;94257.16;5035468;28;20183;-79
2023/12/21 11:26:49;;;;;;;0.77;0.67;;;;;;;8.06;85.40;94245.69;5029626;28;20209;-79
2023/12/21 11:29:14;;;;;;;0.70;0.50;;;;;;;7.94;86.08;94231.47;5015953;28;20187;-78
2023/12/21 11:31:41;;;;;;;0.73;0.50;;;;;;;8.21;85.31;94215.56;5012117;28;20185;-79
2023/12/21 11:34:14;;;;;;;0.60;0.60;;;;;;;8.07;86.60;94211.09;5018181;28;20190;-79